sensor_id;sensor_type;location;lat;lon;timestamp;temperature;humidity
63277;DHT22;49403;51.046;13.780;2023-07-16T00:00:13;27.40;55.50
63277;DHT22;49403;51.046;13.780;2023-07-16T00:00:46;27.40;55.50
63277;DHT22;49403;51.046;13.780;2023-07-16T00:01:18;27.40;55.50
63277;DHT22;49403;51.046;13.780;2023-07-16T00:01:49;27.40;55.60
63277;DHT22;49403;51.046;13.780;2023-07-16T00:02:20;27.40;55.60
63277;DHT22;49403;51.046;13.780;2023-07-16T00:02:52;26.40;55.00
63277;DHT22;49403;51.046;13.780;2023-07-16T00:03:23;27.50;55.60
63277;DHT22;49403;51.046;13.780;2023-07-16T00:03:55;27.50;55.70
63277;DHT22;49403;51.046;13.780;2023-07-16T00:04:26;27.40;55.60
63277;DHT22;49403;51.046;13.780;2023-07-16T00:04:58;27.50;55.70
63277;DHT22;49403;51.046;13.780;2023-07-16T00:05:29;27.50;55.60
63277;DHT22;49403;51.046;13.780;2023-07-16T00:06:03;27.50;55.70
63277;DHT22;49403;51.046;13.780;2023-07-16T00:06:35;27.50;55.60
63277;DHT22;49403;51.046;13.780;2023-07-16T00:07:09;27.50;55.60
63277;DHT22;49403;51.046;13.780;2023-07-16T00:07:43;27.50;55.70
63277;DHT22;49403;51.046;13.780;2023-07-16T00:08:15;27.50;56.00
63277;DHT22;49403;51.046;13.780;2023-07-16T00:08:49;27.40;56.00
63277;DHT22;49403;51.046;13.780;2023-07-16T00:09:20;27.40;56.00
63277;DHT22;49403;51.046;13.780;2023-07-16T00:09:54;27.40;56.10
63277;DHT22;49403;51.046;13.780;2023-07-16T00:10:25;27.30;56.00
63277;DHT22;49403;51.046;13.780;2023-07-16T00:10:57;27.30;56.00
63277;DHT22;49403;51.046;13.780;2023-07-16T00:11:28;27.30;56.10
63277;DHT22;49403;51.046;13.780;2023-07-16T00:12:00;27.30;56.20
63277;DHT22;49403;51.046;13.780;2023-07-16T00:12:31;27.20;56.20
63277;DHT22;49403;51.046;13.780;2023-07-16T00:13:03;27.40;56.40
63277;DHT22;49403;51.046;13.780;2023-07-16T00:13:34;27.20;56.40
63277;DHT22;49403;51.046;13.780;2023-07-16T00:14:09;27.20;56.40
63277;DHT22;49403;51.046;13.780;2023-07-16T00:14:43;27.30;56.50
63277;DHT22;49403;51.046;13.780;2023-07-16T00:15:14;27.20;56.30
63277;DHT22;49403;51.046;13.780;2023-07-16T00:15:46;27.30;56.20
63277;DHT22;49403;51.046;13.780;2023-07-16T00:16:17;27.30;56.10
63277;DHT22;49403;51.046;13.780;2023-07-16T00:16:49;27.30;56.00
63277;DHT22;49403;51.046;13.780;2023-07-16T00:17:23;27.40;56.00
63277;DHT22;49403;51.046;13.780;2023-07-16T00:17:54;27.40;56.00
63277;DHT22;49403;51.046;13.780;2023-07-16T00:18:25;28.50;56.70
63277;DHT22;49403;51.046;13.780;2023-07-16T00:18:57;27.10;56.10
63277;DHT22;49403;51.046;13.780;2023-07-16T00:19:31;27.40;56.30
63277;DHT22;49403;51.046;13.780;2023-07-16T00:20:06;26.90;56.00
63277;DHT22;49403;51.046;13.780;2023-07-16T00:20:37;27.30;56.30
63277;DHT22;49403;51.046;13.780;2023-07-16T00:21:12;27.20;56.20
63277;DHT22;49403;51.046;13.780;2023-07-16T00:21:46;27.30;56.20
63277;DHT22;49403;51.046;13.780;2023-07-16T00:22:17;27.30;56.30
63277;DHT22;49403;51.046;13.780;2023-07-16T00:22:52;27.20;56.20
63277;DHT22;49403;51.046;13.780;2023-07-16T00:23:23;27.20;56.30
63277;DHT22;49403;51.046;13.780;2023-07-16T00:23:55;27.10;56.40
63277;DHT22;49403;51.046;13.780;2023-07-16T00:24:26;26.80;56.30
63277;DHT22;49403;51.046;13.780;2023-07-16T00:24:58;27.10;56.60
63277;DHT22;49403;51.046;13.780;2023-07-16T00:25:33;27.10;56.80
63277;DHT22;49403;51.046;13.780;2023-07-16T00:26:05;27.00;56.90
63277;DHT22;49403;51.046;13.780;2023-07-16T00:26:37;27.00;57.20
63277;DHT22;49403;51.046;13.780;2023-07-16T00:27:08;26.90;57.30
63277;DHT22;49403;51.046;13.780;2023-07-16T00:27:40;26.80;57.20
63277;DHT22;49403;51.046;13.780;2023-07-16T00:28:14;26.80;57.30
63277;DHT22;49403;51.046;13.780;2023-07-16T00:28:45;26.80;57.40
63277;DHT22;49403;51.046;13.780;2023-07-16T00:29:17;26.70;57.50
63277;DHT22;49403;51.046;13.780;2023-07-16T00:29:48;26.70;57.50
63277;DHT22;49403;51.046;13.780;2023-07-16T00:30:20;26.70;57.50
63277;DHT22;49403;51.046;13.780;2023-07-16T00:30:51;26.60;57.50
63277;DHT22;49403;51.046;13.780;2023-07-16T00:31:22;26.60;57.60
63277;DHT22;49403;51.046;13.780;2023-07-16T00:31:56;26.60;57.70
63277;DHT22;49403;51.046;13.780;2023-07-16T00:32:28;26.80;57.80
63277;DHT22;49403;51.046;13.780;2023-07-16T00:32:59;26.60;57.80
63277;DHT22;49403;51.046;13.780;2023-07-16T00:33:30;26.60;57.80
63277;DHT22;49403;51.046;13.780;2023-07-16T00:34:02;26.60;57.70
63277;DHT22;49403;51.046;13.780;2023-07-16T00:34:33;26.60;58.40
63277;DHT22;49403;51.046;13.780;2023-07-16T00:35:05;26.60;57.80
63277;DHT22;49403;51.046;13.780;2023-07-16T00:35:36;26.60;57.80
63277;DHT22;49403;51.046;13.780;2023-07-16T00:36:08;26.60;57.80
63277;DHT22;49403;51.046;13.780;2023-07-16T00:36:39;27.00;58.20
63277;DHT22;49403;51.046;13.780;2023-07-16T00:37:10;26.50;57.90
63277;DHT22;49403;51.046;13.780;2023-07-16T00:37:42;26.50;57.90
63277;DHT22;49403;51.046;13.780;2023-07-16T00:38:13;26.40;57.90
63277;DHT22;49403;51.046;13.780;2023-07-16T00:38:44;26.50;58.00
63277;DHT22;49403;51.046;13.780;2023-07-16T00:39:16;26.40;58.00
63277;DHT22;49403;51.046;13.780;2023-07-16T00:39:47;26.10;57.80
63277;DHT22;49403;51.046;13.780;2023-07-16T00:40:19;26.40;58.10
63277;DHT22;49403;51.046;13.780;2023-07-16T00:40:50;27.20;58.60
63277;DHT22;49403;51.046;13.780;2023-07-16T00:41:21;26.40;58.10
63277;DHT22;49403;51.046;13.780;2023-07-16T00:41:52;26.40;58.20
63277;DHT22;49403;51.046;13.780;2023-07-16T00:42:24;26.40;58.20
63277;DHT22;49403;51.046;13.780;2023-07-16T00:42:55;26.40;58.40
63277;DHT22;49403;51.046;13.780;2023-07-16T00:43:26;26.40;58.40
63277;DHT22;49403;51.046;13.780;2023-07-16T00:43:58;26.30;58.40
63277;DHT22;49403;51.046;13.780;2023-07-16T00:44:31;26.30;58.40
63277;DHT22;49403;51.046;13.780;2023-07-16T00:45:10;27.20;59.10
63277;DHT22;49403;51.046;13.780;2023-07-16T00:45:45;26.30;58.60
63277;DHT22;49403;51.046;13.780;2023-07-16T00:46:17;26.30;58.60
63277;DHT22;49403;51.046;13.780;2023-07-16T00:46:49;26.10;58.50
63277;DHT22;49403;51.046;13.780;2023-07-16T00:47:21;26.30;58.70
63277;DHT22;49403;51.046;13.780;2023-07-16T00:47:53;26.30;58.80
63277;DHT22;49403;51.046;13.780;2023-07-16T00:48:25;26.30;58.90
63277;DHT22;49403;51.046;13.780;2023-07-16T00:48:56;26.30;58.90
63277;DHT22;49403;51.046;13.780;2023-07-16T00:49:28;26.30;59.00
63277;DHT22;49403;51.046;13.780;2023-07-16T00:50:00;26.30;59.20
63277;DHT22;49403;51.046;13.780;2023-07-16T00:50:31;26.30;59.30
63277;DHT22;49403;51.046;13.780;2023-07-16T00:51:04;26.30;59.40
63277;DHT22;49403;51.046;13.780;2023-07-16T00:51:39;26.30;59.50
63277;DHT22;49403;51.046;13.780;2023-07-16T00:52:16;26.20;59.60
63277;DHT22;49403;51.046;13.780;2023-07-16T00:52:49;26.20;59.70
63277;DHT22;49403;51.046;13.780;2023-07-16T00:53:20;26.20;59.90
63277;DHT22;49403;51.046;13.780;2023-07-16T00:53:52;26.20;60.10
63277;DHT22;49403;51.046;13.780;2023-07-16T00:54:24;26.10;60.20
63277;DHT22;49403;51.046;13.780;2023-07-16T00:54:55;26.00;60.10
63277;DHT22;49403;51.046;13.780;2023-07-16T00:55:30;26.10;60.30
63277;DHT22;49403;51.046;13.780;2023-07-16T00:56:01;25.10;59.70
63277;DHT22;49403;51.046;13.780;2023-07-16T00:56:32;26.00;60.50
63277;DHT22;49403;51.046;13.780;2023-07-16T00:57:04;26.10;60.60
63277;DHT22;49403;51.046;13.780;2023-07-16T00:57:35;26.10;60.70
63277;DHT22;49403;51.046;13.780;2023-07-16T00:58:07;26.10;60.70
63277;DHT22;49403;51.046;13.780;2023-07-16T00:58:38;26.00;60.70
63277;DHT22;49403;51.046;13.780;2023-07-16T00:59:10;26.10;60.60
63277;DHT22;49403;51.046;13.780;2023-07-16T00:59:41;26.10;60.60
63277;DHT22;49403;51.046;13.780;2023-07-16T01:00:12;26.20;60.70
63277;DHT22;49403;51.046;13.780;2023-07-16T01:00:44;26.20;60.70
63277;DHT22;49403;51.046;13.780;2023-07-16T01:01:15;26.20;60.70
63277;DHT22;49403;51.046;13.780;2023-07-16T01:01:47;26.20;60.80
63277;DHT22;49403;51.046;13.780;2023-07-16T01:02:18;26.20;60.90
63277;DHT22;49403;51.046;13.780;2023-07-16T01:02:49;26.20;61.00
63277;DHT22;49403;51.046;13.780;2023-07-16T01:03:20;26.20;61.10
63277;DHT22;49403;51.046;13.780;2023-07-16T01:03:52;26.10;61.10
63277;DHT22;49403;51.046;13.780;2023-07-16T01:04:23;26.20;61.20
63277;DHT22;49403;51.046;13.780;2023-07-16T01:04:54;26.10;61.20
63277;DHT22;49403;51.046;13.780;2023-07-16T01:05:29;26.20;61.40
63277;DHT22;49403;51.046;13.780;2023-07-16T01:06:14;26.20;61.40
63277;DHT22;49403;51.046;13.780;2023-07-16T01:06:50;25.90;61.30
63277;DHT22;49403;51.046;13.780;2023-07-16T01:07:25;26.10;61.40
63277;DHT22;49403;51.046;13.780;2023-07-16T01:08:02;26.10;61.40
63277;DHT22;49403;51.046;13.780;2023-07-16T01:09:02;26.10;61.40
63277;DHT22;49403;51.046;13.780;2023-07-16T01:09:35;26.20;61.40
63277;DHT22;49403;51.046;13.780;2023-07-16T01:10:10;26.20;61.40
63277;DHT22;49403;51.046;13.780;2023-07-16T01:10:42;26.20;61.40
63277;DHT22;49403;51.046;13.780;2023-07-16T01:11:16;26.20;61.40
63277;DHT22;49403;51.046;13.780;2023-07-16T01:11:48;26.10;61.20
63277;DHT22;49403;51.046;13.780;2023-07-16T01:12:21;25.40;60.60
63277;DHT22;49403;51.046;13.780;2023-07-16T01:12:55;26.30;61.20
63277;DHT22;49403;51.046;13.780;2023-07-16T01:13:28;26.30;61.20
63277;DHT22;49403;51.046;13.780;2023-07-16T01:14:00;26.30;61.50
63277;DHT22;49403;51.046;13.780;2023-07-16T01:14:35;26.30;61.20
63277;DHT22;49403;51.046;13.780;2023-07-16T01:15:06;26.30;61.30
63277;DHT22;49403;51.046;13.780;2023-07-16T01:15:37;26.30;61.30
63277;DHT22;49403;51.046;13.780;2023-07-16T01:16:22;26.30;61.30
63277;DHT22;49403;51.046;13.780;2023-07-16T01:16:53;26.30;61.30
63277;DHT22;49403;51.046;13.780;2023-07-16T01:17:29;27.60;62.40
63277;DHT22;49403;51.046;13.780;2023-07-16T01:18:00;26.30;61.40
63277;DHT22;49403;51.046;13.780;2023-07-16T01:18:31;26.30;61.40
63277;DHT22;49403;51.046;13.780;2023-07-16T01:19:03;26.30;61.40
63277;DHT22;49403;51.046;13.780;2023-07-16T01:19:35;26.30;61.40
63277;DHT22;49403;51.046;13.780;2023-07-16T01:20:07;26.30;61.30
63277;DHT22;49403;51.046;13.780;2023-07-16T01:20:39;26.30;61.30
63277;DHT22;49403;51.046;13.780;2023-07-16T01:21:10;26.40;61.20
63277;DHT22;49403;51.046;13.780;2023-07-16T01:21:51;26.40;61.30
63277;DHT22;49403;51.046;13.780;2023-07-16T01:22:42;26.40;61.10
63277;DHT22;49403;51.046;13.780;2023-07-16T01:23:39;26.50;61.00
63277;DHT22;49403;51.046;13.780;2023-07-16T01:25:05;26.40;60.80
63277;DHT22;49403;51.046;13.780;2023-07-16T01:28:39;26.60;60.80
63277;DHT22;49403;51.046;13.780;2023-07-16T01:30:04;26.60;60.50
63277;DHT22;49403;51.046;13.780;2023-07-16T01:30:37;26.60;60.50
63277;DHT22;49403;51.046;13.780;2023-07-16T01:31:10;26.60;60.40
63277;DHT22;49403;51.046;13.780;2023-07-16T01:31:42;26.60;60.40
63277;DHT22;49403;51.046;13.780;2023-07-16T01:32:17;26.60;60.40
63277;DHT22;49403;51.046;13.780;2023-07-16T01:32:49;26.60;60.50
63277;DHT22;49403;51.046;13.780;2023-07-16T01:33:21;26.70;60.50
63277;DHT22;49403;51.046;13.780;2023-07-16T01:33:54;26.60;60.50
63277;DHT22;49403;51.046;13.780;2023-07-16T01:34:28;26.60;60.40
63277;DHT22;49403;51.046;13.780;2023-07-16T01:35:02;26.60;60.40
63277;DHT22;49403;51.046;13.780;2023-07-16T01:35:34;26.60;60.40
63277;DHT22;49403;51.046;13.780;2023-07-16T01:36:06;26.60;60.40
63277;DHT22;49403;51.046;13.780;2023-07-16T01:36:39;26.60;60.30
63277;DHT22;49403;51.046;13.780;2023-07-16T01:37:13;26.60;60.30
63277;DHT22;49403;51.046;13.780;2023-07-16T01:37:48;26.70;60.40
63277;DHT22;49403;51.046;13.780;2023-07-16T01:38:19;26.70;60.40
63277;DHT22;49403;51.046;13.780;2023-07-16T01:38:52;26.70;60.20
63277;DHT22;49403;51.046;13.780;2023-07-16T01:39:23;26.70;60.20
63277;DHT22;49403;51.046;13.780;2023-07-16T01:39:55;26.80;60.20
63277;DHT22;49403;51.046;13.780;2023-07-16T01:40:30;26.80;60.00
63277;DHT22;49403;51.046;13.780;2023-07-16T01:41:01;26.20;59.50
63277;DHT22;49403;51.046;13.780;2023-07-16T01:41:33;26.90;59.90
63277;DHT22;49403;51.046;13.780;2023-07-16T01:42:04;26.90;59.80
63277;DHT22;49403;51.046;13.780;2023-07-16T01:42:35;26.90;59.80
63277;DHT22;49403;51.046;13.780;2023-07-16T01:43:07;27.00;59.70
63277;DHT22;49403;51.046;13.780;2023-07-16T01:43:38;27.00;59.70
63277;DHT22;49403;51.046;13.780;2023-07-16T01:44:09;27.00;59.50
63277;DHT22;49403;51.046;13.780;2023-07-16T01:44:40;27.00;59.40
63277;DHT22;49403;51.046;13.780;2023-07-16T01:45:12;27.00;59.30
63277;DHT22;49403;51.046;13.780;2023-07-16T01:45:43;27.20;59.40
63277;DHT22;49403;51.046;13.780;2023-07-16T01:46:14;27.10;59.30
63277;DHT22;49403;51.046;13.780;2023-07-16T01:46:51;27.10;59.30
63277;DHT22;49403;51.046;13.780;2023-07-16T01:48:33;27.10;59.20
63277;DHT22;49403;51.046;13.780;2023-07-16T01:49:04;27.00;59.20
63277;DHT22;49403;51.046;13.780;2023-07-16T01:49:36;27.50;59.60
63277;DHT22;49403;51.046;13.780;2023-07-16T01:50:07;27.00;59.30
63277;DHT22;49403;51.046;13.780;2023-07-16T01:50:39;27.00;59.30
63277;DHT22;49403;51.046;13.780;2023-07-16T01:51:10;26.90;59.30
63277;DHT22;49403;51.046;13.780;2023-07-16T01:51:44;26.60;59.20
63277;DHT22;49403;51.046;13.780;2023-07-16T01:52:15;27.00;59.40
63277;DHT22;49403;51.046;13.780;2023-07-16T01:52:47;27.00;59.60
63277;DHT22;49403;51.046;13.780;2023-07-16T01:53:18;27.00;59.60
63277;DHT22;49403;51.046;13.780;2023-07-16T01:53:49;26.90;59.60
63277;DHT22;49403;51.046;13.780;2023-07-16T01:54:20;27.00;59.70
63277;DHT22;49403;51.046;13.780;2023-07-16T01:54:52;26.90;59.70
63277;DHT22;49403;51.046;13.780;2023-07-16T01:55:23;26.90;59.80
63277;DHT22;49403;51.046;13.780;2023-07-16T01:55:54;26.80;59.80
63277;DHT22;49403;51.046;13.780;2023-07-16T01:56:25;26.80;59.90
63277;DHT22;49403;51.046;13.780;2023-07-16T01:56:57;26.80;60.00
63277;DHT22;49403;51.046;13.780;2023-07-16T01:57:28;26.80;60.20
63277;DHT22;49403;51.046;13.780;2023-07-16T01:57:59;26.70;60.20
63277;DHT22;49403;51.046;13.780;2023-07-16T01:58:30;26.60;60.20
63277;DHT22;49403;51.046;13.780;2023-07-16T01:59:02;26.60;60.30
63277;DHT22;49403;51.046;13.780;2023-07-16T01:59:35;26.70;60.70
63277;DHT22;49403;51.046;13.780;2023-07-16T02:00:07;26.50;60.90
63277;DHT22;49403;51.046;13.780;2023-07-16T02:00:39;26.40;61.10
63277;DHT22;49403;51.046;13.780;2023-07-16T02:01:10;26.40;61.30
63277;DHT22;49403;51.046;13.780;2023-07-16T02:01:41;26.30;61.10
63277;DHT22;49403;51.046;13.780;2023-07-16T02:02:13;26.30;61.30
63277;DHT22;49403;51.046;13.780;2023-07-16T02:02:44;26.40;61.50
63277;DHT22;49403;51.046;13.780;2023-07-16T02:03:15;26.30;61.50
63277;DHT22;49403;51.046;13.780;2023-07-16T02:03:47;26.30;61.70
63277;DHT22;49403;51.046;13.780;2023-07-16T02:04:18;26.20;61.80
63277;DHT22;49403;51.046;13.780;2023-07-16T02:04:49;26.20;61.90
63277;DHT22;49403;51.046;13.780;2023-07-16T02:05:20;26.30;62.00
63277;DHT22;49403;51.046;13.780;2023-07-16T02:05:52;26.20;62.10
63277;DHT22;49403;51.046;13.780;2023-07-16T02:06:23;26.10;62.10
63277;DHT22;49403;51.046;13.780;2023-07-16T02:06:54;26.20;62.30
63277;DHT22;49403;51.046;13.780;2023-07-16T02:07:25;26.20;62.40
63277;DHT22;49403;51.046;13.780;2023-07-16T02:07:56;26.10;62.40
63277;DHT22;49403;51.046;13.780;2023-07-16T02:08:28;26.10;62.40
63277;DHT22;49403;51.046;13.780;2023-07-16T02:08:59;26.00;62.40
63277;DHT22;49403;51.046;13.780;2023-07-16T02:09:30;26.20;62.50
63277;DHT22;49403;51.046;13.780;2023-07-16T02:10:02;26.20;62.60
63277;DHT22;49403;51.046;13.780;2023-07-16T02:10:33;26.20;62.70
63277;DHT22;49403;51.046;13.780;2023-07-16T02:11:04;26.20;62.90
63277;DHT22;49403;51.046;13.780;2023-07-16T02:11:35;26.20;62.80
63277;DHT22;49403;51.046;13.780;2023-07-16T02:12:07;26.20;63.00
63277;DHT22;49403;51.046;13.780;2023-07-16T02:12:38;26.20;63.20
63277;DHT22;49403;51.046;13.780;2023-07-16T02:13:09;26.30;63.40
63277;DHT22;49403;51.046;13.780;2023-07-16T02:13:41;26.00;63.50
63277;DHT22;49403;51.046;13.780;2023-07-16T02:14:12;26.20;64.00
63277;DHT22;49403;51.046;13.780;2023-07-16T02:14:44;26.10;64.20
63277;DHT22;49403;51.046;13.780;2023-07-16T02:15:16;26.10;64.10
63277;DHT22;49403;51.046;13.780;2023-07-16T02:15:48;26.00;64.50
63277;DHT22;49403;51.046;13.780;2023-07-16T02:16:19;26.00;64.70
63277;DHT22;49403;51.046;13.780;2023-07-16T02:16:51;26.00;65.60
63277;DHT22;49403;51.046;13.780;2023-07-16T02:17:22;26.10;65.50
63277;DHT22;49403;51.046;13.780;2023-07-16T02:17:53;25.70;65.00
63277;DHT22;49403;51.046;13.780;2023-07-16T02:18:24;26.00;65.40
63277;DHT22;49403;51.046;13.780;2023-07-16T02:18:55;26.10;65.90
63277;DHT22;49403;51.046;13.780;2023-07-16T02:19:27;25.90;66.30
63277;DHT22;49403;51.046;13.780;2023-07-16T02:19:58;25.90;66.50
63277;DHT22;49403;51.046;13.780;2023-07-16T02:20:29;25.60;66.00
63277;DHT22;49403;51.046;13.780;2023-07-16T02:21:01;25.90;66.40
63277;DHT22;49403;51.046;13.780;2023-07-16T02:21:32;25.90;66.90
63277;DHT22;49403;51.046;13.780;2023-07-16T02:22:08;25.90;67.80
63277;DHT22;49403;51.046;13.780;2023-07-16T02:22:39;25.80;67.60
63277;DHT22;49403;51.046;13.780;2023-07-16T02:23:10;25.90;67.50
63277;DHT22;49403;51.046;13.780;2023-07-16T02:23:42;24.80;66.70
63277;DHT22;49403;51.046;13.780;2023-07-16T02:24:13;25.80;67.80
63277;DHT22;49403;51.046;13.780;2023-07-16T02:24:44;25.10;67.40
63277;DHT22;49403;51.046;13.780;2023-07-16T02:25:16;25.70;67.60
63277;DHT22;49403;51.046;13.780;2023-07-16T02:25:47;25.50;67.60
63277;DHT22;49403;51.046;13.780;2023-07-16T02:26:18;25.50;67.90
63277;DHT22;49403;51.046;13.780;2023-07-16T02:26:50;25.50;68.40
63277;DHT22;49403;51.046;13.780;2023-07-16T02:27:21;25.40;68.60
63277;DHT22;49403;51.046;13.780;2023-07-16T02:27:52;25.50;69.00
63277;DHT22;49403;51.046;13.780;2023-07-16T02:28:24;25.30;69.00
63277;DHT22;49403;51.046;13.780;2023-07-16T02:28:55;25.90;69.80
63277;DHT22;49403;51.046;13.780;2023-07-16T02:29:29;25.30;69.80
63277;DHT22;49403;51.046;13.780;2023-07-16T02:30:02;25.20;70.10
63277;DHT22;49403;51.046;13.780;2023-07-16T02:30:33;25.10;70.10
63277;DHT22;49403;51.046;13.780;2023-07-16T02:31:05;25.20;70.50
63277;DHT22;49403;51.046;13.780;2023-07-16T02:31:36;25.20;70.80
63277;DHT22;49403;51.046;13.780;2023-07-16T02:32:07;25.20;71.20
63277;DHT22;49403;51.046;13.780;2023-07-16T02:32:39;25.30;71.20
63277;DHT22;49403;51.046;13.780;2023-07-16T02:33:10;25.30;71.10
63277;DHT22;49403;51.046;13.780;2023-07-16T02:33:43;25.30;70.50
63277;DHT22;49403;51.046;13.780;2023-07-16T02:34:15;25.40;70.40
63277;DHT22;49403;51.046;13.780;2023-07-16T02:34:46;25.40;70.50
63277;DHT22;49403;51.046;13.780;2023-07-16T02:35:17;25.40;70.50
63277;DHT22;49403;51.046;13.780;2023-07-16T02:35:49;25.50;70.60
63277;DHT22;49403;51.046;13.780;2023-07-16T02:36:22;25.50;70.30
63277;DHT22;49403;51.046;13.780;2023-07-16T02:36:53;25.60;70.90
63277;DHT22;49403;51.046;13.780;2023-07-16T02:37:25;25.60;71.10
63277;DHT22;49403;51.046;13.780;2023-07-16T02:37:56;25.60;70.30
63277;DHT22;49403;51.046;13.780;2023-07-16T02:38:27;25.60;70.20
63277;DHT22;49403;51.046;13.780;2023-07-16T02:38:58;25.60;70.00
63277;DHT22;49403;51.046;13.780;2023-07-16T02:39:29;25.50;70.10
63277;DHT22;49403;51.046;13.780;2023-07-16T02:40:01;25.50;70.20
63277;DHT22;49403;51.046;13.780;2023-07-16T02:40:32;25.50;70.50
63277;DHT22;49403;51.046;13.780;2023-07-16T02:41:03;25.60;70.20
63277;DHT22;49403;51.046;13.780;2023-07-16T02:41:34;25.50;70.20
63277;DHT22;49403;51.046;13.780;2023-07-16T02:42:05;25.50;70.60
63277;DHT22;49403;51.046;13.780;2023-07-16T02:42:37;25.50;70.90
63277;DHT22;49403;51.046;13.780;2023-07-16T02:43:08;25.50;71.10
63277;DHT22;49403;51.046;13.780;2023-07-16T02:43:39;25.50;71.70
63277;DHT22;49403;51.046;13.780;2023-07-16T02:44:14;25.30;72.00
63277;DHT22;49403;51.046;13.780;2023-07-16T02:44:45;25.60;73.40
63277;DHT22;49403;51.046;13.780;2023-07-16T02:45:16;25.60;72.50
63277;DHT22;49403;51.046;13.780;2023-07-16T02:45:47;25.60;71.60
63277;DHT22;49403;51.046;13.780;2023-07-16T02:46:18;25.50;71.50
63277;DHT22;49403;51.046;13.780;2023-07-16T02:46:50;25.50;71.90
63277;DHT22;49403;51.046;13.780;2023-07-16T02:47:21;25.50;72.20
63277;DHT22;49403;51.046;13.780;2023-07-16T02:47:53;25.50;72.30
63277;DHT22;49403;51.046;13.780;2023-07-16T02:48:24;25.50;72.20
63277;DHT22;49403;51.046;13.780;2023-07-16T02:48:55;25.50;72.60
63277;DHT22;49403;51.046;13.780;2023-07-16T02:49:26;26.00;72.80
63277;DHT22;49403;51.046;13.780;2023-07-16T02:49:57;25.40;72.30
63277;DHT22;49403;51.046;13.780;2023-07-16T02:50:29;25.40;72.50
63277;DHT22;49403;51.046;13.780;2023-07-16T02:51:00;25.40;72.10
63277;DHT22;49403;51.046;13.780;2023-07-16T02:51:31;24.50;71.50
63277;DHT22;49403;51.046;13.780;2023-07-16T02:52:03;25.30;72.60
63277;DHT22;49403;51.046;13.780;2023-07-16T02:52:34;25.30;72.50
63277;DHT22;49403;51.046;13.780;2023-07-16T02:53:06;25.20;72.70
63277;DHT22;49403;51.046;13.780;2023-07-16T02:53:38;25.30;73.00
63277;DHT22;49403;51.046;13.780;2023-07-16T02:54:09;24.60;72.60
63277;DHT22;49403;51.046;13.780;2023-07-16T02:54:40;25.20;72.90
63277;DHT22;49403;51.046;13.780;2023-07-16T02:55:12;24.00;71.80
63277;DHT22;49403;51.046;13.780;2023-07-16T02:55:45;25.10;73.00
63277;DHT22;49403;51.046;13.780;2023-07-16T02:56:17;25.10;73.60
63277;DHT22;49403;51.046;13.780;2023-07-16T02:56:48;25.10;74.30
63277;DHT22;49403;51.046;13.780;2023-07-16T02:57:21;25.10;75.30
63277;DHT22;49403;51.046;13.780;2023-07-16T02:57:52;25.10;75.00
63277;DHT22;49403;51.046;13.780;2023-07-16T02:58:23;25.10;75.40
63277;DHT22;49403;51.046;13.780;2023-07-16T02:58:55;25.10;76.60
63277;DHT22;49403;51.046;13.780;2023-07-16T02:59:26;25.00;77.10
63277;DHT22;49403;51.046;13.780;2023-07-16T02:59:57;25.00;77.70
63277;DHT22;49403;51.046;13.780;2023-07-16T03:00:28;24.90;78.00
63277;DHT22;49403;51.046;13.780;2023-07-16T03:01:00;24.90;78.20
63277;DHT22;49403;51.046;13.780;2023-07-16T03:01:31;24.80;78.20
63277;DHT22;49403;51.046;13.780;2023-07-16T03:02:02;24.90;79.10
63277;DHT22;49403;51.046;13.780;2023-07-16T03:02:33;24.70;78.60
63277;DHT22;49403;51.046;13.780;2023-07-16T03:03:05;24.70;79.90
63277;DHT22;49403;51.046;13.780;2023-07-16T03:03:36;24.30;80.50
63277;DHT22;49403;51.046;13.780;2023-07-16T03:04:08;24.60;82.00
63277;DHT22;49403;51.046;13.780;2023-07-16T03:04:39;24.60;82.30
63277;DHT22;49403;51.046;13.780;2023-07-16T03:05:11;24.50;81.90
63277;DHT22;49403;51.046;13.780;2023-07-16T03:05:42;24.50;83.30
63277;DHT22;49403;51.046;13.780;2023-07-16T03:06:13;24.50;83.40
63277;DHT22;49403;51.046;13.780;2023-07-16T03:06:44;24.50;83.50
63277;DHT22;49403;51.046;13.780;2023-07-16T03:07:15;24.40;82.70
63277;DHT22;49403;51.046;13.780;2023-07-16T03:07:47;24.40;83.10
63277;DHT22;49403;51.046;13.780;2023-07-16T03:08:18;24.30;83.70
63277;DHT22;49403;51.046;13.780;2023-07-16T03:08:50;24.30;83.60
63277;DHT22;49403;51.046;13.780;2023-07-16T03:09:21;24.20;84.20
63277;DHT22;49403;51.046;13.780;2023-07-16T03:09:52;24.10;84.00
63277;DHT22;49403;51.046;13.780;2023-07-16T03:10:24;24.10;84.90
63277;DHT22;49403;51.046;13.780;2023-07-16T03:10:57;24.10;85.80
63277;DHT22;49403;51.046;13.780;2023-07-16T03:11:28;24.00;87.00
63277;DHT22;49403;51.046;13.780;2023-07-16T03:11:59;24.00;89.20
63277;DHT22;49403;51.046;13.780;2023-07-16T03:12:31;24.00;90.10
63277;DHT22;49403;51.046;13.780;2023-07-16T03:13:02;23.20;90.70
63277;DHT22;49403;51.046;13.780;2023-07-16T03:13:33;24.00;90.20
63277;DHT22;49403;51.046;13.780;2023-07-16T03:14:05;24.00;90.50
63277;DHT22;49403;51.046;13.780;2023-07-16T03:14:36;24.00;90.30
63277;DHT22;49403;51.046;13.780;2023-07-16T03:15:08;24.00;90.30
63277;DHT22;49403;51.046;13.780;2023-07-16T03:15:39;24.00;91.10
63277;DHT22;49403;51.046;13.780;2023-07-16T03:16:11;24.00;90.80
63277;DHT22;49403;51.046;13.780;2023-07-16T03:16:42;24.00;90.80
63277;DHT22;49403;51.046;13.780;2023-07-16T03:17:13;24.10;90.70
63277;DHT22;49403;51.046;13.780;2023-07-16T03:17:44;24.20;91.10
63277;DHT22;49403;51.046;13.780;2023-07-16T03:18:17;24.00;91.50
63277;DHT22;49403;51.046;13.780;2023-07-16T03:18:49;24.40;92.10
63277;DHT22;49403;51.046;13.780;2023-07-16T03:19:20;24.10;92.40
63277;DHT22;49403;51.046;13.780;2023-07-16T03:19:52;24.10;92.30
63277;DHT22;49403;51.046;13.780;2023-07-16T03:20:23;24.20;92.60
63277;DHT22;49403;51.046;13.780;2023-07-16T03:20:54;24.20;92.20
63277;DHT22;49403;51.046;13.780;2023-07-16T03:21:25;24.20;91.20
63277;DHT22;49403;51.046;13.780;2023-07-16T03:21:56;24.20;91.70
63277;DHT22;49403;51.046;13.780;2023-07-16T03:22:28;24.30;92.40
63277;DHT22;49403;51.046;13.780;2023-07-16T03:22:59;25.00;92.80
63277;DHT22;49403;51.046;13.780;2023-07-16T03:23:30;24.30;92.70
63277;DHT22;49403;51.046;13.780;2023-07-16T03:24:01;25.30;93.30
63277;DHT22;49403;51.046;13.780;2023-07-16T03:24:32;24.40;93.00
63277;DHT22;49403;51.046;13.780;2023-07-16T03:25:04;24.40;93.60
63277;DHT22;49403;51.046;13.780;2023-07-16T03:25:36;25.30;94.90